sensor_id;sensor_type;location;lat;lon;timestamp;P1;durP1;ratioP1;P2;durP2;ratioP2
20669;SDS011;10494;50.868;4.180;2023-10-08T00:01:18;5.57;;;2.50;;
20669;SDS011;10494;50.868;4.180;2023-10-08T00:03:48;9.45;;;3.38;;
20669;SDS011;10494;50.868;4.180;2023-10-08T00:06:23;6.18;;;3.17;;
20669;SDS011;10494;50.868;4.180;2023-10-08T00:08:49;9.00;;;3.35;;
20669;SDS011;10494;50.868;4.180;2023-10-08T00:11:15;5.28;;;2.90;;
20669;SDS011;10494;50.868;4.180;2023-10-08T00:13:44;5.15;;;3.05;;
20669;SDS011;10494;50.868;4.180;2023-10-08T00:16:10;8.05;;;3.03;;
20669;SDS011;10494;50.868;4.180;2023-10-08T00:18:41;7.05;;;3.20;;
20669;SDS011;10494;50.868;4.180;2023-10-08T00:21:14;5.65;;;2.97;;
20669;SDS011;10494;50.868;4.180;2023-10-08T00:24:02;6.50;;;3.28;;
20669;SDS011;10494;50.868;4.180;2023-10-08T00:26:32;7.85;;;3.20;;
20669;SDS011;10494;50.868;4.180;2023-10-08T00:29:03;10.77;;;3.22;;
20669;SDS011;10494;50.868;4.180;2023-10-08T00:31:49;5.55;;;2.83;;
20669;SDS011;10494;50.868;4.180;2023-10-08T00:34:16;8.20;;;3.33;;
20669;SDS011;10494;50.868;4.180;2023-10-08T00:36:45;9.05;;;3.03;;
20669;SDS011;10494;50.868;4.180;2023-10-08T00:39:15;7.53;;;3.33;;
20669;SDS011;10494;50.868;4.180;2023-10-08T00:41:50;6.20;;;3.25;;
20669;SDS011;10494;50.868;4.180;2023-10-08T00:44:29;11.63;;;3.05;;
20669;SDS011;10494;50.868;4.180;2023-10-08T00:46:55;8.30;;;3.10;;
20669;SDS011;10494;50.868;4.180;2023-10-08T00:49:25;9.13;;;3.22;;
20669;SDS011;10494;50.868;4.180;2023-10-08T00:52:13;6.35;;;3.60;;
20669;SDS011;10494;50.868;4.180;2023-10-08T00:54:40;7.82;;;3.10;;
20669;SDS011;10494;50.868;4.180;2023-10-08T00:57:17;6.70;;;2.95;;
20669;SDS011;10494;50.868;4.180;2023-10-08T00:59:46;9.45;;;3.17;;
20669;SDS011;10494;50.868;4.180;2023-10-08T01:02:25;6.07;;;3.05;;
20669;SDS011;10494;50.868;4.180;2023-10-08T01:04:54;11.40;;;3.20;;
20669;SDS011;10494;50.868;4.180;2023-10-08T01:07:21;7.15;;;3.53;;
20669;SDS011;10494;50.868;4.180;2023-10-08T01:09:48;9.32;;;3.42;;
20669;SDS011;10494;50.868;4.180;2023-10-08T01:12:25;7.50;;;3.33;;
20669;SDS011;10494;50.868;4.180;2023-10-08T01:14:51;10.50;;;3.15;;
20669;SDS011;10494;50.868;4.180;2023-10-08T01:17:19;11.63;;;3.30;;
20669;SDS011;10494;50.868;4.180;2023-10-08T01:19:49;10.63;;;4.00;;
20669;SDS011;10494;50.868;4.180;2023-10-08T01:22:36;8.25;;;3.50;;
20669;SDS011;10494;50.868;4.180;2023-10-08T01:25:04;8.13;;;3.28;;
20669;SDS011;10494;50.868;4.180;2023-10-08T01:27:31;7.22;;;3.50;;
20669;SDS011;10494;50.868;4.180;2023-10-08T01:30:02;7.03;;;3.33;;
20669;SDS011;10494;50.868;4.180;2023-10-08T01:32:42;8.15;;;3.10;;
20669;SDS011;10494;50.868;4.180;2023-10-08T01:35:08;6.13;;;3.55;;
20669;SDS011;10494;50.868;4.180;2023-10-08T01:37:47;7.38;;;3.53;;
20669;SDS011;10494;50.868;4.180;2023-10-08T01:40:17;8.68;;;3.50;;
20669;SDS011;10494;50.868;4.180;2023-10-08T01:42:43;10.15;;;3.75;;
20669;SDS011;10494;50.868;4.180;2023-10-08T01:45:09;8.65;;;3.58;;
20669;SDS011;10494;50.868;4.180;2023-10-08T01:47:38;6.70;;;3.17;;
20669;SDS011;10494;50.868;4.180;2023-10-08T01:50:04;8.55;;;3.20;;
20669;SDS011;10494;50.868;4.180;2023-10-08T01:52:30;7.80;;;3.17;;
20669;SDS011;10494;50.868;4.180;2023-10-08T01:54:56;8.05;;;3.00;;
20669;SDS011;10494;50.868;4.180;2023-10-08T01:57:23;6.15;;;3.20;;
20669;SDS011;10494;50.868;4.180;2023-10-08T01:59:48;7.70;;;3.83;;
20669;SDS011;10494;50.868;4.180;2023-10-08T02:02:14;11.07;;;4.13;;
20669;SDS011;10494;50.868;4.180;2023-10-08T02:04:40;8.95;;;3.72;;
20669;SDS011;10494;50.868;4.180;2023-10-08T02:07:06;9.40;;;3.70;;
20669;SDS011;10494;50.868;4.180;2023-10-08T02:09:39;6.82;;;3.42;;
20669;SDS011;10494;50.868;4.180;2023-10-08T02:12:05;9.15;;;3.88;;
20669;SDS011;10494;50.868;4.180;2023-10-08T02:14:31;6.53;;;3.10;;
20669;SDS011;10494;50.868;4.180;2023-10-08T02:17:00;7.25;;;3.35;;
20669;SDS011;10494;50.868;4.180;2023-10-08T02:19:31;10.23;;;3.80;;
20669;SDS011;10494;50.868;4.180;2023-10-08T02:21:57;6.70;;;3.35;;
20669;SDS011;10494;50.868;4.180;2023-10-08T02:24:24;7.45;;;3.45;;
20669;SDS011;10494;50.868;4.180;2023-10-08T02:26:51;11.52;;;3.72;;
20669;SDS011;10494;50.868;4.180;2023-10-08T02:29:18;9.45;;;3.22;;
20669;SDS011;10494;50.868;4.180;2023-10-08T02:31:44;10.10;;;3.50;;
20669;SDS011;10494;50.868;4.180;2023-10-08T02:34:10;11.48;;;4.38;;
20669;SDS011;10494;50.868;4.180;2023-10-08T02:36:37;10.18;;;4.07;;
20669;SDS011;10494;50.868;4.180;2023-10-08T02:39:05;8.15;;;3.60;;
20669;SDS011;10494;50.868;4.180;2023-10-08T02:41:47;5.53;;;3.33;;
20669;SDS011;10494;50.868;4.180;2023-10-08T02:44:14;11.02;;;3.83;;
20669;SDS011;10494;50.868;4.180;2023-10-08T02:46:42;7.10;;;4.00;;
20669;SDS011;10494;50.868;4.180;2023-10-08T02:49:10;8.45;;;3.90;;
20669;SDS011;10494;50.868;4.180;2023-10-08T02:51:39;8.45;;;3.85;;
20669;SDS011;10494;50.868;4.180;2023-10-08T02:54:07;10.30;;;3.33;;
20669;SDS011;10494;50.868;4.180;2023-10-08T02:56:41;7.60;;;3.70;;
20669;SDS011;10494;50.868;4.180;2023-10-08T02:59:09;10.23;;;4.28;;
20669;SDS011;10494;50.868;4.180;2023-10-08T03:01:37;8.48;;;3.90;;
20669;SDS011;10494;50.868;4.180;2023-10-08T03:04:05;8.27;;;3.72;;
20669;SDS011;10494;50.868;4.180;2023-10-08T03:06:39;6.80;;;3.05;;
20669;SDS011;10494;50.868;4.180;2023-10-08T03:09:06;6.72;;;3.85;;
20669;SDS011;10494;50.868;4.180;2023-10-08T03:11:34;8.77;;;3.50;;
20669;SDS011;10494;50.868;4.180;2023-10-08T03:14:03;7.05;;;3.53;;
20669;SDS011;10494;50.868;4.180;2023-10-08T03:16:29;7.68;;;4.00;;
20669;SDS011;10494;50.868;4.180;2023-10-08T03:19:00;6.00;;;3.28;;
20669;SDS011;10494;50.868;4.180;2023-10-08T03:21:28;9.60;;;3.72;;
20669;SDS011;10494;50.868;4.180;2023-10-08T03:24:02;7.00;;;3.83;;
20669;SDS011;10494;50.868;4.180;2023-10-08T03:26:37;9.63;;;3.67;;
20669;SDS011;10494;50.868;4.180;2023-10-08T03:29:05;6.55;;;3.63;;
20669;SDS011;10494;50.868;4.180;2023-10-08T03:31:33;6.53;;;3.58;;
20669;SDS011;10494;50.868;4.180;2023-10-08T03:34:11;9.10;;;4.78;;
20669;SDS011;10494;50.868;4.180;2023-10-08T03:36:38;8.20;;;4.18;;
20669;SDS011;10494;50.868;4.180;2023-10-08T03:39:16;7.80;;;4.15;;
20669;SDS011;10494;50.868;4.180;2023-10-08T03:41:45;8.23;;;4.00;;
20669;SDS011;10494;50.868;4.180;2023-10-08T03:44:24;8.20;;;3.90;;
20669;SDS011;10494;50.868;4.180;2023-10-08T03:46:50;7.70;;;4.22;;
20669;SDS011;10494;50.868;4.180;2023-10-08T03:49:17;6.10;;;3.05;;
20669;SDS011;10494;50.868;4.180;2023-10-08T03:51:46;7.03;;;3.88;;
20669;SDS011;10494;50.868;4.180;2023-10-08T03:54:13;8.73;;;4.15;;
20669;SDS011;10494;50.868;4.180;2023-10-08T03:56:39;7.75;;;4.25;;
20669;SDS011;10494;50.868;4.180;2023-10-08T03:59:10;6.05;;;3.47;;
20669;SDS011;10494;50.868;4.180;2023-10-08T04:01:42;10.10;;;4.25;;
20669;SDS011;10494;50.868;4.180;2023-10-08T04:04:08;9.50;;;3.90;;
20669;SDS011;10494;50.868;4.180;2023-10-08T04:06:40;12.02;;;4.20;;
20669;SDS011;10494;50.868;4.180;2023-10-08T04:09:14;8.70;;;3.72;;
20669;SDS011;10494;50.868;4.180;2023-10-08T04:11:50;6.93;;;3.85;;
20669;SDS011;10494;50.868;4.180;2023-10-08T04:14:26;8.48;;;3.63;;
20669;SDS011;10494;50.868;4.180;2023-10-08T04:16:53;6.03;;;3.47;;
20669;SDS011;10494;50.868;4.180;2023-10-08T04:19:19;9.40;;;3.92;;
20669;SDS011;10494;50.868;4.180;2023-10-08T04:21:46;8.45;;;3.85;;
20669;SDS011;10494;50.868;4.180;2023-10-08T04:24:19;10.27;;;4.32;;
20669;SDS011;10494;50.868;4.180;2023-10-08T04:26:52;7.72;;;4.05;;
20669;SDS011;10494;50.868;4.180;2023-10-08T04:29:21;7.63;;;4.32;;
20669;SDS011;10494;50.868;4.180;2023-10-08T04:31:48;9.40;;;3.60;;
20669;SDS011;10494;50.868;4.180;2023-10-08T04:34:25;7.25;;;3.45;;
20669;SDS011;10494;50.868;4.180;2023-10-08T04:36:52;9.98;;;3.88;;
20669;SDS011;10494;50.868;4.180;2023-10-08T04:39:26;6.20;;;3.65;;
20669;SDS011;10494;50.868;4.180;2023-10-08T04:42:00;8.30;;;3.95;;
20669;SDS011;10494;50.868;4.180;2023-10-08T04:44:39;9.15;;;4.30;;
20669;SDS011;10494;50.868;4.180;2023-10-08T04:47:08;10.13;;;4.38;;
20669;SDS011;10494;50.868;4.180;2023-10-08T04:49:34;8.10;;;4.03;;
20669;SDS011;10494;50.868;4.180;2023-10-08T04:52:04;10.07;;;3.67;;
20669;SDS011;10494;50.868;4.180;2023-10-08T04:54:34;8.27;;;3.88;;
20669;SDS011;10494;50.868;4.180;2023-10-08T04:57:05;6.30;;;3.63;;
20669;SDS011;10494;50.868;4.180;2023-10-08T04:59:32;6.15;;;3.80;;
20669;SDS011;10494;50.868;4.180;2023-10-08T05:02:02;5.93;;;3.38;;
20669;SDS011;10494;50.868;4.180;2023-10-08T05:04:38;7.65;;;4.13;;
20669;SDS011;10494;50.868;4.180;2023-10-08T05:07:25;6.38;;;3.50;;
20669;SDS011;10494;50.868;4.180;2023-10-08T05:10:09;8.65;;;3.58;;
20669;SDS011;10494;50.868;4.180;2023-10-08T05:12:44;8.48;;;3.78;;
20669;SDS011;10494;50.868;4.180;2023-10-08T05:15:26;7.43;;;3.90;;
20669;SDS011;10494;50.868;4.180;2023-10-08T05:18:01;10.68;;;4.00;;
20669;SDS011;10494;50.868;4.180;2023-10-08T05:20:45;9.90;;;4.28;;
20669;SDS011;10494;50.868;4.180;2023-10-08T05:23:13;6.35;;;3.25;;
20669;SDS011;10494;50.868;4.180;2023-10-08T05:25:49;9.43;;;4.05;;
20669;SDS011;10494;50.868;4.180;2023-10-08T05:28:34;9.48;;;4.25;;
20669;SDS011;10494;50.868;4.180;2023-10-08T05:31:20;11.38;;;3.85;;
20669;SDS011;10494;50.868;4.180;2023-10-08T05:34:04;9.55;;;4.05;;
20669;SDS011;10494;50.868;4.180;2023-10-08T05:36:48;6.40;;;3.53;;
20669;SDS011;10494;50.868;4.180;2023-10-08T05:39:26;9.60;;;3.75;;
20669;SDS011;10494;50.868;4.180;2023-10-08T05:41:55;9.25;;;4.13;;
20669;SDS011;10494;50.868;4.180;2023-10-08T05:44:40;6.53;;;3.88;;
20669;SDS011;10494;50.868;4.180;2023-10-08T05:47:10;8.48;;;3.50;;
20669;SDS011;10494;50.868;4.180;2023-10-08T05:49:51;8.48;;;4.35;;
20669;SDS011;10494;50.868;4.180;2023-10-08T05:52:39;8.38;;;3.83;;
20669;SDS011;10494;50.868;4.180;2023-10-08T05:55:24;9.18;;;4.35;;
20669;SDS011;10494;50.868;4.180;2023-10-08T05:57:50;8.90;;;4.13;;
20669;SDS011;10494;50.868;4.180;2023-10-08T06:00:40;8.40;;;3.60;;
20669;SDS011;10494;50.868;4.180;2023-10-08T06:03:15;6.10;;;3.78;;
20669;SDS011;10494;50.868;4.180;2023-10-08T06:06:00;7.50;;;3.95;;
20669;SDS011;10494;50.868;4.180;2023-10-08T06:08:52;6.22;;;3.70;;
20669;SDS011;10494;50.868;4.180;2023-10-08T06:11:47;11.68;;;4.55;;
20669;SDS011;10494;50.868;4.180;2023-10-08T06:14:33;9.93;;;4.18;;
20669;SDS011;10494;50.868;4.180;2023-10-08T06:17:18;9.20;;;4.20;;
20669;SDS011;10494;50.868;4.180;2023-10-08T06:20:09;7.68;;;4.30;;
20669;SDS011;10494;50.868;4.180;2023-10-08T06:22:42;7.80;;;3.75;;
20669;SDS011;10494;50.868;4.180;2023-10-08T06:25:08;8.32;;;3.80;;
20669;SDS011;10494;50.868;4.180;2023-10-08T06:27:48;6.90;;;3.97;;
20669;SDS011;10494;50.868;4.180;2023-10-08T06:30:23;9.27;;;3.75;;
20669;SDS011;10494;50.868;4.180;2023-10-08T06:32:54;9.98;;;4.22;;
20669;SDS011;10494;50.868;4.180;2023-10-08T06:35:20;5.43;;;3.83;;
20669;SDS011;10494;50.868;4.180;2023-10-08T06:37:50;8.88;;;4.18;;
20669;SDS011;10494;50.868;4.180;2023-10-08T06:40:19;9.35;;;4.68;;
20669;SDS011;10494;50.868;4.180;2023-10-08T06:43:09;10.68;;;4.22;;
20669;SDS011;10494;50.868;4.180;2023-10-08T06:45:42;9.70;;;4.32;;
20669;SDS011;10494;50.868;4.180;2023-10-08T06:48:09;8.77;;;3.92;;
20669;SDS011;10494;50.868;4.180;2023-10-08T06:50:42;7.18;;;4.15;;
20669;SDS011;10494;50.868;4.180;2023-10-08T06:53:09;8.32;;;4.03;;
20669;SDS011;10494;50.868;4.180;2023-10-08T06:55:38;8.75;;;4.53;;
20669;SDS011;10494;50.868;4.180;2023-10-08T06:58:08;10.38;;;4.65;;
20669;SDS011;10494;50.868;4.180;2023-10-08T07:00:35;8.32;;;4.43;;
20669;SDS011;10494;50.868;4.180;2023-10-08T07:03:20;8.32;;;4.60;;
20669;SDS011;10494;50.868;4.180;2023-10-08T07:05:46;8.43;;;4.43;;
20669;SDS011;10494;50.868;4.180;2023-10-08T07:08:22;9.90;;;4.47;;
20669;SDS011;10494;50.868;4.180;2023-10-08T07:10:49;9.80;;;4.72;;
20669;SDS011;10494;50.868;4.180;2023-10-08T07:13:16;8.27;;;4.80;;
20669;SDS011;10494;50.868;4.180;2023-10-08T07:15:47;12.00;;;4.13;;
20669;SDS011;10494;50.868;4.180;2023-10-08T07:18:17;9.38;;;4.07;;
20669;SDS011;10494;50.868;4.180;2023-10-08T07:20:53;9.43;;;4.93;;
20669;SDS011;10494;50.868;4.180;2023-10-08T07:23:21;11.18;;;4.60;;
20669;SDS011;10494;50.868;4.180;2023-10-08T07:25:53;10.75;;;4.00;;
20669;SDS011;10494;50.868;4.180;2023-10-08T07:28:24;10.15;;;4.28;;
20669;SDS011;10494;50.868;4.180;2023-10-08T07:30:51;10.63;;;4.18;;
20669;SDS011;10494;50.868;4.180;2023-10-08T07:33:17;6.55;;;4.53;;
20669;SDS011;10494;50.868;4.180;2023-10-08T07:35:47;8.43;;;4.30;;
20669;SDS011;10494;50.868;4.180;2023-10-08T07:38:37;8.57;;;4.40;;
20669;SDS011;10494;50.868;4.180;2023-10-08T07:41:12;7.38;;;4.03;;
20669;SDS011;10494;50.868;4.180;2023-10-08T07:43:42;9.02;;;4.13;;
20669;SDS011;10494;50.868;4.180;2023-10-08T07:46:09;10.13;;;4.80;;
20669;SDS011;10494;50.868;4.180;2023-10-08T07:48:35;11.43;;;4.78;;
20669;SDS011;10494;50.868;4.180;2023-10-08T07:51:01;8.27;;;4.97;;
20669;SDS011;10494;50.868;4.180;2023-10-08T07:53:27;7.70;;;4.25;;
20669;SDS011;10494;50.868;4.180;2023-10-08T07:56:04;9.98;;;4.70;;
20669;SDS011;10494;50.868;4.180;2023-10-08T07:58:32;10.52;;;5.07;;
20669;SDS011;10494;50.868;4.180;2023-10-08T08:01:02;10.57;;;5.22;;
20669;SDS011;10494;50.868;4.180;2023-10-08T08:03:39;10.52;;;5.05;;
20669;SDS011;10494;50.868;4.180;2023-10-08T08:06:06;11.65;;;5.30;;
20669;SDS011;10494;50.868;4.180;2023-10-08T08:08:34;14.20;;;5.28;;
20669;SDS011;10494;50.868;4.180;2023-10-08T08:11:01;12.77;;;4.82;;
20669;SDS011;10494;50.868;4.180;2023-10-08T08:13:33;10.07;;;4.55;;
20669;SDS011;10494;50.868;4.180;2023-10-08T08:15:59;10.43;;;4.75;;
20669;SDS011;10494;50.868;4.180;2023-10-08T08:18:35;10.55;;;4.22;;
20669;SDS011;10494;50.868;4.180;2023-10-08T08:21:02;9.07;;;4.68;;
20669;SDS011;10494;50.868;4.180;2023-10-08T08:23:28;8.32;;;4.57;;
20669;SDS011;10494;50.868;4.180;2023-10-08T08:25:55;9.63;;;4.43;;
20669;SDS011;10494;50.868;4.180;2023-10-08T08:28:32;11.20;;;4.22;;
20669;SDS011;10494;50.868;4.180;2023-10-08T08:31:04;8.65;;;4.55;;
20669;SDS011;10494;50.868;4.180;2023-10-08T08:33:38;8.35;;;3.97;;
20669;SDS011;10494;50.868;4.180;2023-10-08T08:36:24;9.60;;;4.20;;
20669;SDS011;10494;50.868;4.180;2023-10-08T08:38:50;8.48;;;4.72;;
20669;SDS011;10494;50.868;4.180;2023-10-08T08:41:16;11.63;;;4.20;;
20669;SDS011;10494;50.868;4.180;2023-10-08T08:43:49;9.00;;;4.28;;
20669;SDS011;10494;50.868;4.180;2023-10-08T08:46:27;11.05;;;4.22;;
20669;SDS011;10494;50.868;4.180;2023-10-08T08:49:00;9.85;;;4.63;;
20669;SDS011;10494;50.868;4.180;2023-10-08T08:51:29;14.43;;;5.00;;
20669;SDS011;10494;50.868;4.180;2023-10-08T08:53:55;17.92;;;4.95;;
20669;SDS011;10494;50.868;4.180;2023-10-08T08:56:20;10.35;;;4.70;;
20669;SDS011;10494;50.868;4.180;2023-10-08T08:58:47;9.65;;;4.30;;
20669;SDS011;10494;50.868;4.180;2023-10-08T09:01:14;10.07;;;4.20;;
20669;SDS011;10494;50.868;4.180;2023-10-08T09:03:42;8.55;;;4.50;;
20669;SDS011;10494;50.868;4.180;2023-10-08T09:06:08;11.75;;;5.05;;
20669;SDS011;10494;50.868;4.180;2023-10-08T09:08:36;11.30;;;4.60;;
20669;SDS011;10494;50.868;4.180;2023-10-08T09:11:02;11.57;;;4.60;;
20669;SDS011;10494;50.868;4.180;2023-10-08T09:13:33;9.90;;;4.10;;
20669;SDS011;10494;50.868;4.180;2023-10-08T09:16:07;10.20;;;4.72;;
20669;SDS011;10494;50.868;4.180;2023-10-08T09:18:33;12.13;;;4.95;;
20669;SDS011;10494;50.868;4.180;2023-10-08T09:21:16;8.20;;;4.72;;
20669;SDS011;10494;50.868;4.180;2023-10-08T09:23:44;11.80;;;5.00;;
20669;SDS011;10494;50.868;4.180;2023-10-08T09:26:21;14.27;;;4.88;;
20669;SDS011;10494;50.868;4.180;2023-10-08T09:28:48;10.63;;;4.45;;
20669;SDS011;10494;50.868;4.180;2023-10-08T09:31:16;12.32;;;4.60;;
20669;SDS011;10494;50.868;4.180;2023-10-08T09:33:43;14.25;;;5.20;;
20669;SDS011;10494;50.868;4.180;2023-10-08T09:36:18;15.15;;;5.88;;
20669;SDS011;10494;50.868;4.180;2023-10-08T09:38:45;10.77;;;5.28;;
20669;SDS011;10494;50.868;4.180;2023-10-08T09:41:13;13.30;;;5.20;;
20669;SDS011;10494;50.868;4.180;2023-10-08T09:43:40;13.07;;;5.53;;
20669;SDS011;10494;50.868;4.180;2023-10-08T09:46:15;13.07;;;5.45;;
20669;SDS011;10494;50.868;4.180;2023-10-08T09:48:51;12.75;;;5.13;;
20669;SDS011;10494;50.868;4.180;2023-10-08T09:51:20;13.43;;;5.10;;
20669;SDS011;10494;50.868;4.180;2023-10-08T09:56:39;10.93;;;5.25;;
20669;SDS011;10494;50.868;4.180;2023-10-08T09:59:05;14.45;;;5.85;;
20669;SDS011;10494;50.868;4.180;2023-10-08T10:01:34;9.88;;;5.55;;
20669;SDS011;10494;50.868;4.180;2023-10-08T10:04:05;15.48;;;6.07;;
20669;SDS011;10494;50.868;4.180;2023-10-08T10:06:34;14.07;;;5.28;;
20669;SDS011;10494;50.868;4.180;2023-10-08T10:09:01;14.57;;;5.50;;
20669;SDS011;10494;50.868;4.180;2023-10-08T10:11:28;11.60;;;5.53;;
20669;SDS011;10494;50.868;4.180;2023-10-08T10:13:58;15.05;;;5.88;;
20669;SDS011;10494;50.868;4.180;2023-10-08T10:16:25;10.68;;;5.13;;
20669;SDS011;10494;50.868;4.180;2023-10-08T10:18:54;16.90;;;5.65;;
20669;SDS011;10494;50.868;4.180;2023-10-08T10:21:25;14.32;;;5.57;;
20669;SDS011;10494;50.868;4.180;2023-10-08T10:23:52;18.65;;;5.28;;
20669;SDS011;10494;50.868;4.180;2023-10-08T10:26:34;12.85;;;5.72;;
20669;SDS011;10494;50.868;4.180;2023-10-08T10:31:49;17.45;;;6.38;;
20669;SDS011;10494;50.868;4.180;2023-10-08T10:34:28;13.82;;;6.25;;
20669;SDS011;10494;50.868;4.180;2023-10-08T10:36:56;13.38;;;5.78;;
20669;SDS011;10494;50.868;4.180;2023-10-08T10:39:50;11.43;;;5.22;;
20669;SDS011;10494;50.868;4.180;2023-10-08T10:42:25;17.35;;;6.57;;
20669;SDS011;10494;50.868;4.180;2023-10-08T10:44:54;19.38;;;6.80;;
20669;SDS011;10494;50.868;4.180;2023-10-08T10:47:21;14.50;;;6.07;;
20669;SDS011;10494;50.868;4.180;2023-10-08T10:49:50;13.55;;;5.78;;
20669;SDS011;10494;50.868;4.180;2023-10-08T10:52:26;16.15;;;6.50;;
20669;SDS011;10494;50.868;4.180;2023-10-08T10:55:17;13.13;;;5.85;;
20669;SDS011;10494;50.868;4.180;2023-10-08T10:57:53;13.45;;;6.30;;
20669;SDS011;10494;50.868;4.180;2023-10-08T11:00:36;17.25;;;6.07;;
20669;SDS011;10494;50.868;4.180;2023-10-08T11:03:03;12.73;;;6.13;;
20669;SDS011;10494;50.868;4.180;2023-10-08T11:05:35;14.57;;;6.13;;
20669;SDS011;10494;50.868;4.180;2023-10-08T11:08:03;14.80;;;6.65;;
20669;SDS011;10494;50.868;4.180;2023-10-08T11:10:31;13.80;;;5.47;;
20669;SDS011;10494;50.868;4.180;2023-10-08T11:12:58;20.55;;;6.55;;
20669;SDS011;10494;50.868;4.180;2023-10-08T11:15:29;21.20;;;7.28;;
20669;SDS011;10494;50.868;4.180;2023-10-08T11:18:09;14.45;;;6.32;;
20669;SDS011;10494;50.868;4.180;2023-10-08T11:20:36;15.50;;;6.30;;
20669;SDS011;10494;50.868;4.180;2023-10-08T11:23:08;15.13;;;7.00;;
20669;SDS011;10494;50.868;4.180;2023-10-08T11:26:04;18.60;;;6.80;;
20669;SDS011;10494;50.868;4.180;2023-10-08T11:28:37;19.05;;;7.15;;
20669;SDS011;10494;50.868;4.180;2023-10-08T11:31:08;15.80;;;7.28;;
20669;SDS011;10494;50.868;4.180;2023-10-08T11:33:36;15.07;;;7.13;;
20669;SDS011;10494;50.868;4.180;2023-10-08T11:36:04;15.32;;;5.97;;
20669;SDS011;10494;50.868;4.180;2023-10-08T11:38:50;12.85;;;6.25;;
20669;SDS011;10494;50.868;4.180;2023-10-08T11:41:18;17.02;;;6.75;;
20669;SDS011;10494;50.868;4.180;2023-10-08T11:43:51;18.80;;;6.55;;
20669;SDS011;10494;50.868;4.180;2023-10-08T11:48:57;14.63;;;5.80;;
20669;SDS011;10494;50.868;4.180;2023-10-08T11:51:28;15.57;;;6.38;;
20669;SDS011;10494;50.868;4.180;2023-10-08T11:53:58;14.50;;;6.70;;
20669;SDS011;10494;50.868;4.180;2023-10-08T11:56:25;17.35;;;6.80;;
20669;SDS011;10494;50.868;4.180;2023-10-08T11:58:52;14.73;;;5.90;;
20669;SDS011;10494;50.868;4.180;2023-10-08T12:01:21;13.75;;;6.28;;
20669;SDS011;10494;50.868;4.180;2023-10-08T12:03:50;17.38;;;6.07;;
20669;SDS011;10494;50.868;4.180;2023-10-08T12:06:16;12.70;;;7.28;;
20669;SDS011;10494;50.868;4.180;2023-10-08T12:08:46;12.32;;;5.97;;
20669;SDS011;10494;50.868;4.180;2023-10-08T12:11:14;19.05;;;7.35;;
20669;SDS011;10494;50.868;4.180;2023-10-08T12:13:41;17.20;;;6.55;;
20669;SDS011;10494;50.868;4.180;2023-10-08T12:16:16;14.02;;;6.20;;
20669;SDS011;10494;50.868;4.180;2023-10-08T12:18:48;12.30;;;5.97;;
20669;SDS011;10494;50.868;4.180;2023-10-08T12:21:18;12.77;;;6.20;;
20669;SDS011;10494;50.868;4.180;2023-10-08T12:23:46;14.07;;;6.85;;
20669;SDS011;10494;50.868;4.180;2023-10-08T12:26:12;14.07;;;6.13;;
20669;SDS011;10494;50.868;4.180;2023-10-08T12:28:41;11.95;;;6.35;;
20669;SDS011;10494;50.868;4.180;2023-10-08T12:31:11;14.18;;;5.90;;
20669;SDS011;10494;50.868;4.180;2023-10-08T12:33:37;13.70;;;7.05;;
20669;SDS011;10494;50.868;4.180;2023-10-08T12:36:03;16.95;;;6.78;;
20669;SDS011;10494;50.868;4.180;2023-10-08T12:38:41;14.50;;;6.68;;
20669;SDS011;10494;50.868;4.180;2023-10-08T12:41:09;13.18;;;6.60;;
20669;SDS011;10494;50.868;4.180;2023-10-08T12:43:38;12.98;;;6.47;;
20669;SDS011;10494;50.868;4.180;2023-10-08T12:46:07;17.20;;;6.45;;
20669;SDS011;10494;50.868;4.180;2023-10-08T12:48:41;14.68;;;5.78;;
20669;SDS011;10494;50.868;4.180;2023-10-08T12:51:09;11.70;;;5.28;;
20669;SDS011;10494;50.868;4.180;2023-10-08T12:53:36;12.23;;;5.43;;
20669;SDS011;10494;50.868;4.180;2023-10-08T12:56:05;12.50;;;5.82;;
20669;SDS011;10494;50.868;4.180;2023-10-08T12:58:39;13.90;;;5.72;;
20669;SDS011;10494;50.868;4.180;2023-10-08T13:01:13;12.23;;;5.65;;
20669;SDS011;10494;50.868;4.180;2023-10-08T13:03:42;13.07;;;5.85;;
20669;SDS011;10494;50.868;4.180;2023-10-08T13:06:12;10.45;;;5.13;;
20669;SDS011;10494;50.868;4.180;2023-10-08T13:08:53;12.65;;;5.32;;
20669;SDS011;10494;50.868;4.180;2023-10-08T13:11:20;15.38;;;6.05;;
20669;SDS011;10494;50.868;4.180;2023-10-08T13:13:50;9.63;;;5.53;;
20669;SDS011;10494;50.868;4.180;2023-10-08T13:16:17;17.92;;;6.25;;
20669;SDS011;10494;50.868;4.180;2023-10-08T13:18:44;13.75;;;5.28;;
20669;SDS011;10494;50.868;4.180;2023-10-08T13:21:10;12.15;;;5.85;;
20669;SDS011;10494;50.868;4.180;2023-10-08T13:23:36;9.82;;;4.72;;
20669;SDS011;10494;50.868;4.180;2023-10-08T13:26:01;14.18;;;5.85;;
20669;SDS011;10494;50.868;4.180;2023-10-08T13:28:32;15.20;;;5.50;;
20669;SDS011;10494;50.868;4.180;2023-10-08T13:31:01;10.93;;;5.25;;
20669;SDS011;10494;50.868;4.180;2023-10-08T13:33:37;15.43;;;5.57;;
20669;SDS011;10494;50.868;4.180;2023-10-08T13:36:05;14.13;;;5.63;;
20669;SDS011;10494;50.868;4.180;2023-10-08T13:38:33;12.95;;;5.60;;
20669;SDS011;10494;50.868;4.180;2023-10-08T13:41:00;11.05;;;5.68;;
20669;SDS011;10494;50.868;4.180;2023-10-08T13:43:34;11.50;;;5.35;;
20669;SDS011;10494;50.868;4.180;2023-10-08T13:46:03;12.15;;;5.30;;
20669;SDS011;10494;50.868;4.180;2023-10-08T13:48:33;11.60;;;5.47;;
20669;SDS011;10494;50.868;4.180;2023-10-08T13:51:01;13.57;;;5.45;;
20669;SDS011;10494;50.868;4.180;2023-10-08T13:53:32;10.55;;;5.72;;
20669;SDS011;10494;50.868;4.180;2023-10-08T13:56:01;12.43;;;5.38;;
20669;SDS011;10494;50.868;4.180;2023-10-08T13:58:29;18.35;;;5.90;;
20669;SDS011;10494;50.868;4.180;2023-10-08T14:01:00;13.50;;;5.82;;
20669;SDS011;10494;50.868;4.180;2023-10-08T14:03:29;13.43;;;5.28;;
20669;SDS011;10494;50.868;4.180;2023-10-08T14:05:58;19.80;;;5.68;;
20669;SDS011;10494;50.868;4.180;2023-10-08T14:08:30;11.90;;;5.45;;
20669;SDS011;10494;50.868;4.180;2023-10-08T14:10:56;11.32;;;4.82;;
20669;SDS011;10494;50.868;4.180;2023-10-08T14:13:34;16.38;;;5.03;;
20669;SDS011;10494;50.868;4.180;2023-10-08T14:16:01;12.85;;;5.20;;
20669;SDS011;10494;50.868;4.180;2023-10-08T14:18:33;10.57;;;5.05;;
20669;SDS011;10494;50.868;4.180;2023-10-08T14:21:08;12.15;;;5.60;;
20669;SDS011;10494;50.868;4.180;2023-10-08T14:23:37;9.13;;;5.07;;
20669;SDS011;10494;50.868;4.180;2023-10-08T14:26:07;11.95;;;5.40;;
20669;SDS011;10494;50.868;4.180;2023-10-08T14:28:34;11.23;;;5.30;;
20669;SDS011;10494;50.868;4.180;2023-10-08T14:31:09;11.15;;;5.53;;
20669;SDS011;10494;50.868;4.180;2023-10-08T14:33:42;11.15;;;4.82;;
20669;SDS011;10494;50.868;4.180;2023-10-08T14:36:21;26.92;;;11.88;;
20669;SDS011;10494;50.868;4.180;2023-10-08T14:39:08;12.32;;;7.15;;
20669;SDS011;10494;50.868;4.180;2023-10-08T14:41:53;10.90;;;5.70;;
20669;SDS011;10494;50.868;4.180;2023-10-08T14:44:37;16.95;;;5.20;;
20669;SDS011;10494;50.868;4.180;2023-10-08T14:47:04;10.20;;;5.10;;
20669;SDS011;10494;50.868;4.180;2023-10-08T14:49:30;10.38;;;4.95;;
20669;SDS011;10494;50.868;4.180;2023-10-08T14:51:57;11.88;;;4.82;;
20669;SDS011;10494;50.868;4.180;2023-10-08T14:54:23;10.20;;;5.72;;
20669;SDS011;10494;50.868;4.180;2023-10-08T14:56:49;8.90;;;5.20;;
20669;SDS011;10494;50.868;4.180;2023-10-08T14:59:15;11.88;;;5.25;;
20669;SDS011;10494;50.868;4.180;2023-10-08T15:01:42;12.02;;;4.85;;
20669;SDS011;10494;50.868;4.180;2023-10-08T15:04:09;9.15;;;5.15;;
20669;SDS011;10494;50.868;4.180;2023-10-08T15:06:36;12.75;;;5.05;;
20669;SDS011;10494;50.868;4.180;2023-10-08T15:09:02;11.00;;;5.05;;
20669;SDS011;10494;50.868;4.180;2023-10-08T15:11:28;11.23;;;4.80;;
20669;SDS011;10494;50.868;4.180;2023-10-08T15:13:57;8.40;;;4.53;;